sensor_id;sensor_type;location;lat;lon;timestamp;pressure;altitude;pressure_sealevel;temperature;humidity
11395;BME280;5753;54.402;10.220;2023-09-12T00:00:01;101189.78;;;31.75;45.97
11395;BME280;5753;54.402;10.220;2023-09-12T00:02:28;101192.25;;;31.64;45.41
11395;BME280;5753;54.402;10.220;2023-09-12T00:04:55;101196.63;;;31.79;45.60
11395;BME280;5753;54.402;10.220;2023-09-12T00:07:21;101193.22;;;30.95;47.23
11395;BME280;5753;54.402;10.220;2023-09-12T00:09:47;101200.31;;;31.50;46.24
11395;BME280;5753;54.402;10.220;2023-09-12T00:12:15;101196.25;;;31.44;46.77
11395;BME280;5753;54.402;10.220;2023-09-12T00:14:41;101198.44;;;31.64;46.16
11395;BME280;5753;54.402;10.220;2023-09-12T00:17:08;101196.84;;;31.62;46.03
11395;BME280;5753;54.402;10.220;2023-09-12T00:19:35;101204.59;;;31.52;46.56
11395;BME280;5753;54.402;10.220;2023-09-12T00:22:01;101204.19;;;31.73;45.94
11395;BME280;5753;54.402;10.220;2023-09-12T00:24:27;101206.59;;;31.49;46.25
11395;BME280;5753;54.402;10.220;2023-09-12T00:26:53;101212.97;;;31.19;47.22
11395;BME280;5753;54.402;10.220;2023-09-12T00:29:19;101210.50;;;30.45;48.60
11395;BME280;5753;54.402;10.220;2023-09-12T00:31:45;101214.16;;;30.87;48.50
11395;BME280;5753;54.402;10.220;2023-09-12T00:34:16;101218.94;;;31.09;47.43
11395;BME280;5753;54.402;10.220;2023-09-12T00:36:43;101228.97;;;30.62;48.67
11395;BME280;5753;54.402;10.220;2023-09-12T00:39:09;101225.91;;;30.54;48.52
11395;BME280;5753;54.402;10.220;2023-09-12T00:41:36;101220.38;;;30.29;49.86
11395;BME280;5753;54.402;10.220;2023-09-12T00:44:02;101230.88;;;29.86;51.44
11395;BME280;5753;54.402;10.220;2023-09-12T00:46:28;101232.13;;;29.95;51.89
11395;BME280;5753;54.402;10.220;2023-09-12T00:48:56;101225.94;;;30.68;49.42
11395;BME280;5753;54.402;10.220;2023-09-12T00:51:24;101223.25;;;30.40;50.01
11395;BME280;5753;54.402;10.220;2023-09-12T00:53:51;101226.69;;;30.85;49.33
11395;BME280;5753;54.402;10.220;2023-09-12T00:56:18;101214.69;;;31.06;48.20
11395;BME280;5753;54.402;10.220;2023-09-12T00:58:44;101208.00;;;31.13;47.84
11395;BME280;5753;54.402;10.220;2023-09-12T01:01:11;101218.69;;;30.70;49.50
11395;BME280;5753;54.402;10.220;2023-09-12T01:03:38;101219.59;;;31.41;47.90
11395;BME280;5753;54.402;10.220;2023-09-12T01:06:04;101217.72;;;31.28;47.59
11395;BME280;5753;54.402;10.220;2023-09-12T01:08:31;101208.00;;;31.13;48.04
11395;BME280;5753;54.402;10.220;2023-09-12T01:10:58;101209.53;;;31.17;47.83
11395;BME280;5753;54.402;10.220;2023-09-12T01:13:25;101201.69;;;30.73;49.37
11395;BME280;5753;54.402;10.220;2023-09-12T01:15:51;101206.66;;;31.35;47.90
11395;BME280;5753;54.402;10.220;2023-09-12T01:18:17;101204.97;;;31.05;48.84
11395;BME280;5753;54.402;10.220;2023-09-12T01:21:10;101200.13;;;31.53;47.84
11395;BME280;5753;54.402;10.220;2023-09-12T01:26:40;101198.88;;;31.31;48.38
11395;BME280;5753;54.402;10.220;2023-09-12T01:29:12;101215.84;;;30.74;50.43
11395;BME280;5753;54.402;10.220;2023-09-12T01:31:40;101214.38;;;29.95;52.74
11395;BME280;5753;54.402;10.220;2023-09-12T01:34:11;101212.59;;;30.97;50.16
11395;BME280;5753;54.402;10.220;2023-09-12T01:36:37;101197.53;;;30.25;51.98
11395;BME280;5753;54.402;10.220;2023-09-12T01:39:03;101192.06;;;30.28;52.30
11395;BME280;5753;54.402;10.220;2023-09-12T01:41:32;101189.44;;;30.85;51.03
11395;BME280;5753;54.402;10.220;2023-09-12T01:44:01;101182.56;;;31.90;47.85
11395;BME280;5753;54.402;10.220;2023-09-12T01:46:28;101175.13;;;32.20;47.36
11395;BME280;5753;54.402;10.220;2023-09-12T01:48:56;101169.16;;;32.17;47.20
11395;BME280;5753;54.402;10.220;2023-09-12T01:51:24;101180.63;;;31.92;47.85
11395;BME280;5753;54.402;10.220;2023-09-12T01:53:51;101182.34;;;32.06;47.32
11395;BME280;5753;54.402;10.220;2023-09-12T01:56:19;101167.88;;;32.22;46.76
11395;BME280;5753;54.402;10.220;2023-09-12T01:58:46;101169.75;;;31.82;48.21
11395;BME280;5753;54.402;10.220;2023-09-12T02:01:12;101161.16;;;32.30;47.07
11395;BME280;5753;54.402;10.220;2023-09-12T02:03:38;101156.34;;;32.47;46.25
11395;BME280;5753;54.402;10.220;2023-09-12T02:06:04;101156.34;;;32.47;46.08
11395;BME280;5753;54.402;10.220;2023-09-12T02:08:30;101174.06;;;32.23;46.56
11395;BME280;5753;54.402;10.220;2023-09-12T02:10:56;101187.53;;;32.34;46.97
11395;BME280;5753;54.402;10.220;2023-09-12T02:13:22;101189.44;;;32.32;46.45
11395;BME280;5753;54.402;10.220;2023-09-12T02:15:48;101192.97;;;32.33;46.60
11395;BME280;5753;54.402;10.220;2023-09-12T02:18:14;101191.28;;;31.79;48.00
11395;BME280;5753;54.402;10.220;2023-09-12T02:20:41;101192.34;;;32.29;46.87
11395;BME280;5753;54.402;10.220;2023-09-12T02:23:11;101189.81;;;32.01;47.61
11395;BME280;5753;54.402;10.220;2023-09-12T02:25:37;101192.22;;;32.31;46.89
11395;BME280;5753;54.402;10.220;2023-09-12T02:28:04;101186.03;;;32.43;46.98
11395;BME280;5753;54.402;10.220;2023-09-12T02:30:30;101192.72;;;32.23;46.69
11395;BME280;5753;54.402;10.220;2023-09-12T02:32:56;101197.59;;;32.04;47.80
11395;BME280;5753;54.402;10.220;2023-09-12T02:35:22;101193.91;;;32.19;47.37
11395;BME280;5753;54.402;10.220;2023-09-12T02:37:48;101191.38;;;32.43;46.98
11395;BME280;5753;54.402;10.220;2023-09-12T02:40:14;101192.47;;;32.13;47.74
11395;BME280;5753;54.402;10.220;2023-09-12T02:42:40;101190.50;;;32.42;47.11
11395;BME280;5753;54.402;10.220;2023-09-12T02:45:07;101187.53;;;32.34;46.79
11395;BME280;5753;54.402;10.220;2023-09-12T02:47:33;101184.22;;;32.31;46.80
11395;BME280;5753;54.402;10.220;2023-09-12T02:49:59;101197.78;;;32.40;46.39
11395;BME280;5753;54.402;10.220;2023-09-12T02:52:25;101199.63;;;32.13;47.09
11395;BME280;5753;54.402;10.220;2023-09-12T02:54:51;101195.34;;;31.85;47.37
11395;BME280;5753;54.402;10.220;2023-09-12T02:57:17;101188.56;;;32.19;46.77
11395;BME280;5753;54.402;10.220;2023-09-12T02:59:43;101189.22;;;32.35;46.44
11395;BME280;5753;54.402;10.220;2023-09-12T03:02:09;101194.88;;;32.18;47.03
11395;BME280;5753;54.402;10.220;2023-09-12T03:04:35;101192.81;;;32.09;46.75
11395;BME280;5753;54.402;10.220;2023-09-12T03:07:02;101197.94;;;32.12;47.19
11395;BME280;5753;54.402;10.220;2023-09-12T03:09:28;101208.09;;;31.12;49.34
11395;BME280;5753;54.402;10.220;2023-09-12T03:11:54;101198.97;;;31.57;48.45
11395;BME280;5753;54.402;10.220;2023-09-12T03:14:20;101191.72;;;31.99;47.39
11395;BME280;5753;54.402;10.220;2023-09-12T03:16:46;101193.50;;;31.73;47.84
11395;BME280;5753;54.402;10.220;2023-09-12T03:19:12;101188.75;;;32.16;46.72
11395;BME280;5753;54.402;10.220;2023-09-12T03:21:39;101190.53;;;31.77;47.98
11395;BME280;5753;54.402;10.220;2023-09-12T03:24:05;101193.00;;;31.93;47.77
11395;BME280;5753;54.402;10.220;2023-09-12T03:26:35;101193.19;;;31.77;47.83
11395;BME280;5753;54.402;10.220;2023-09-12T03:29:03;101205.16;;;31.97;47.43
11395;BME280;5753;54.402;10.220;2023-09-12T03:31:29;101200.06;;;32.07;46.93
11395;BME280;5753;54.402;10.220;2023-09-12T03:33:55;101198.56;;;32.03;47.29
11395;BME280;5753;54.402;10.220;2023-09-12T03:36:21;101205.28;;;31.96;47.24
11395;BME280;5753;54.402;10.220;2023-09-12T03:38:47;101211.78;;;31.38;48.75
11395;BME280;5753;54.402;10.220;2023-09-12T03:41:13;101206.44;;;31.91;47.46
11395;BME280;5753;54.402;10.220;2023-09-12T03:43:39;101204.09;;;32.00;46.97
11395;BME280;5753;54.402;10.220;2023-09-12T03:46:06;101212.63;;;31.79;47.90
11395;BME280;5753;54.402;10.220;2023-09-12T03:48:32;101203.78;;;31.91;47.70
11395;BME280;5753;54.402;10.220;2023-09-12T03:50:58;101210.50;;;31.97;47.18
11395;BME280;5753;54.402;10.220;2023-09-12T03:53:25;101211.13;;;31.75;47.95
11395;BME280;5753;54.402;10.220;2023-09-12T03:55:52;101202.03;;;31.51;48.71
11395;BME280;5753;54.402;10.220;2023-09-12T03:58:18;101191.69;;;31.73;47.59
11395;BME280;5753;54.402;10.220;2023-09-12T04:00:44;101201.94;;;31.79;47.90
11395;BME280;5753;54.402;10.220;2023-09-12T04:03:11;101195.78;;;31.91;47.45
11395;BME280;5753;54.402;10.220;2023-09-12T04:05:37;101194.81;;;32.05;47.17
11395;BME280;5753;54.402;10.220;2023-09-12T04:08:03;101206.13;;;31.69;47.96
11395;BME280;5753;54.402;10.220;2023-09-12T04:10:29;101213.00;;;31.46;47.97
11395;BME280;5753;54.402;10.220;2023-09-12T04:12:55;101213.22;;;31.70;47.08
11395;BME280;5753;54.402;10.220;2023-09-12T04:15:21;101211.56;;;31.82;47.12
11395;BME280;5753;54.402;10.220;2023-09-12T04:17:47;101215.41;;;31.37;48.31
11395;BME280;5753;54.402;10.220;2023-09-12T04:20:13;101211.72;;;31.52;47.94
11395;BME280;5753;54.402;10.220;2023-09-12T04:22:41;101220.34;;;31.43;47.91
11395;BME280;5753;54.402;10.220;2023-09-12T04:25:07;101218.69;;;31.81;47.28
11395;BME280;5753;54.402;10.220;2023-09-12T04:27:33;101220.53;;;31.93;46.97
11395;BME280;5753;54.402;10.220;2023-09-12T04:30:00;101220.38;;;31.55;47.55
11395;BME280;5753;54.402;10.220;2023-09-12T04:32:26;101219.53;;;31.55;47.22
11395;BME280;5753;54.402;10.220;2023-09-12T04:34:52;101223.91;;;31.29;48.09
11395;BME280;5753;54.402;10.220;2023-09-12T04:37:18;101220.13;;;31.46;48.11
11395;BME280;5753;54.402;10.220;2023-09-12T04:39:45;101213.03;;;31.59;47.45
11395;BME280;5753;54.402;10.220;2023-09-12T04:42:11;101216.66;;;31.58;47.97
11395;BME280;5753;54.402;10.220;2023-09-12T04:44:40;101211.84;;;31.50;47.66
11395;BME280;5753;54.402;10.220;2023-09-12T04:47:07;101211.44;;;31.56;47.53
11395;BME280;5753;54.402;10.220;2023-09-12T04:49:34;101212.00;;;31.20;48.78
11395;BME280;5753;54.402;10.220;2023-09-12T04:52:00;101202.31;;;31.19;48.84
11395;BME280;5753;54.402;10.220;2023-09-12T04:54:26;101200.00;;;31.54;47.66
11395;BME280;5753;54.402;10.220;2023-09-12T04:56:52;101198.31;;;31.26;48.42
11395;BME280;5753;54.402;10.220;2023-09-12T04:59:19;101194.06;;;31.78;47.25
11395;BME280;5753;54.402;10.220;2023-09-12T05:01:45;101191.28;;;31.79;47.15
11395;BME280;5753;54.402;10.220;2023-09-12T05:04:11;101195.88;;;31.63;47.26
11395;BME280;5753;54.402;10.220;2023-09-12T05:06:37;101201.75;;;31.68;47.37
11395;BME280;5753;54.402;10.220;2023-09-12T05:09:03;101201.63;;;31.71;47.10
11395;BME280;5753;54.402;10.220;2023-09-12T05:11:31;101197.78;;;31.75;47.16
11395;BME280;5753;54.402;10.220;2023-09-12T05:13:57;101193.22;;;31.63;47.06
11395;BME280;5753;54.402;10.220;2023-09-12T05:16:25;101202.88;;;31.51;47.83
11395;BME280;5753;54.402;10.220;2023-09-12T05:18:51;101203.78;;;31.64;47.68
11395;BME280;5753;54.402;10.220;2023-09-12T05:21:17;101207.94;;;31.96;46.94
11395;BME280;5753;54.402;10.220;2023-09-12T05:23:43;101216.84;;;31.55;47.78
11395;BME280;5753;54.402;10.220;2023-09-12T05:26:09;101219.03;;;31.21;48.94
11395;BME280;5753;54.402;10.220;2023-09-12T05:28:35;101219.03;;;31.36;48.55
11395;BME280;5753;54.402;10.220;2023-09-12T05:31:01;101220.28;;;31.57;47.75
11395;BME280;5753;54.402;10.220;2023-09-12T05:33:28;101213.75;;;31.48;47.70
11395;BME280;5753;54.402;10.220;2023-09-12T05:35:54;101209.97;;;31.65;47.98
11395;BME280;5753;54.402;10.220;2023-09-12T05:38:20;101223.00;;;31.70;47.71
11395;BME280;5753;54.402;10.220;2023-09-12T05:40:47;101209.66;;;31.97;47.15
11395;BME280;5753;54.402;10.220;2023-09-12T05:43:16;101212.00;;;31.35;48.38
11395;BME280;5753;54.402;10.220;2023-09-12T05:45:43;101212.50;;;31.54;48.36
11395;BME280;5753;54.402;10.220;2023-09-12T05:48:09;101215.69;;;31.59;47.93
11395;BME280;5753;54.402;10.220;2023-09-12T05:50:38;101217.41;;;31.74;47.48
11395;BME280;5753;54.402;10.220;2023-09-12T05:53:04;101216.16;;;31.39;49.11
11395;BME280;5753;54.402;10.220;2023-09-12T05:55:30;101213.78;;;32.28;46.35
11395;BME280;5753;54.402;10.220;2023-09-12T05:57:56;101214.50;;;32.17;46.70
11395;BME280;5753;54.402;10.220;2023-09-12T06:00:23;101210.19;;;32.02;46.99
11395;BME280;5753;54.402;10.220;2023-09-12T06:02:49;101224.69;;;31.98;47.45
11395;BME280;5753;54.402;10.220;2023-09-12T06:05:15;101218.56;;;32.22;46.74
11395;BME280;5753;54.402;10.220;2023-09-12T06:07:42;101226.47;;;31.84;47.47
11395;BME280;5753;54.402;10.220;2023-09-12T06:10:09;101229.56;;;32.43;45.68
11395;BME280;5753;54.402;10.220;2023-09-12T06:12:35;101235.53;;;32.60;45.97
11395;BME280;5753;54.402;10.220;2023-09-12T06:15:02;101234.69;;;32.72;45.41
11395;BME280;5753;54.402;10.220;2023-09-12T06:17:30;101233.94;;;31.79;47.39
11395;BME280;5753;54.402;10.220;2023-09-12T06:19:56;101236.41;;;31.68;47.27
11395;BME280;5753;54.402;10.220;2023-09-12T06:22:22;101240.81;;;31.42;47.95
11395;BME280;5753;54.402;10.220;2023-09-12T06:24:49;101242.31;;;32.13;46.99
11395;BME280;5753;54.402;10.220;2023-09-12T06:27:16;101243.34;;;32.24;46.65
11395;BME280;5753;54.402;10.220;2023-09-12T06:29:45;101250.09;;;32.16;47.08
11395;BME280;5753;54.402;10.220;2023-09-12T06:32:14;101236.19;;;32.50;46.14
11395;BME280;5753;54.402;10.220;2023-09-12T06:34:41;101237.28;;;32.86;45.38
11395;BME280;5753;54.402;10.220;2023-09-12T06:37:07;101243.88;;;32.93;45.11
11395;BME280;5753;54.402;10.220;2023-09-12T06:39:33;101224.88;;;32.85;45.36
11395;BME280;5753;54.402;10.220;2023-09-12T06:41:59;101233.41;;;32.90;45.00
11395;BME280;5753;54.402;10.220;2023-09-12T06:44:26;101240.69;;;32.88;44.96
11395;BME280;5753;54.402;10.220;2023-09-12T06:46:52;101247.09;;;32.73;45.43
11395;BME280;5753;54.402;10.220;2023-09-12T06:49:18;101253.59;;;32.69;45.30
11395;BME280;5753;54.402;10.220;2023-09-12T06:51:44;101244.28;;;32.62;45.27
11395;BME280;5753;54.402;10.220;2023-09-12T06:54:10;101259.03;;;32.42;46.12
11395;BME280;5753;54.402;10.220;2023-09-12T06:56:36;101261.16;;;33.00;44.78
11395;BME280;5753;54.402;10.220;2023-09-12T06:59:04;101273.72;;;32.22;46.49
11395;BME280;5753;54.402;10.220;2023-09-12T07:01:30;101262.31;;;33.22;44.47
11395;BME280;5753;54.402;10.220;2023-09-12T07:03:56;101269.59;;;33.56;43.57
11395;BME280;5753;54.402;10.220;2023-09-12T07:06:23;101261.84;;;32.66;45.20
11395;BME280;5753;54.402;10.220;2023-09-12T07:08:49;101263.69;;;33.27;44.02
11395;BME280;5753;54.402;10.220;2023-09-12T07:11:17;101254.34;;;33.69;43.57
11395;BME280;5753;54.402;10.220;2023-09-12T07:13:45;101254.28;;;33.22;44.20
11395;BME280;5753;54.402;10.220;2023-09-12T07:16:11;101249.28;;;33.77;42.83
11395;BME280;5753;54.402;10.220;2023-09-12T07:18:37;101255.34;;;34.03;42.33
11395;BME280;5753;54.402;10.220;2023-09-12T07:21:05;101251.22;;;33.75;43.05
11395;BME280;5753;54.402;10.220;2023-09-12T07:23:32;101258.38;;;33.02;44.08
11395;BME280;5753;54.402;10.220;2023-09-12T07:25:58;101258.31;;;33.40;43.66
11395;BME280;5753;54.402;10.220;2023-09-12T07:28:26;101251.78;;;33.68;43.07
11395;BME280;5753;54.402;10.220;2023-09-12T07:30:52;101250.59;;;33.96;42.28
11395;BME280;5753;54.402;10.220;2023-09-12T07:33:19;101249.47;;;33.87;42.48
11395;BME280;5753;54.402;10.220;2023-09-12T07:35:47;101248.19;;;34.04;42.25
11395;BME280;5753;54.402;10.220;2023-09-12T07:38:14;101256.41;;;33.90;41.90
11395;BME280;5753;54.402;10.220;2023-09-12T07:40:43;101259.75;;;34.39;41.28
11395;BME280;5753;54.402;10.220;2023-09-12T07:43:09;101251.28;;;34.57;41.09
11395;BME280;5753;54.402;10.220;2023-09-12T07:45:36;101254.34;;;34.28;40.88
11395;BME280;5753;54.402;10.220;2023-09-12T07:48:09;101253.25;;;34.88;39.97
11395;BME280;5753;54.402;10.220;2023-09-12T07:50:37;101258.09;;;34.61;40.26
11395;BME280;5753;54.402;10.220;2023-09-12T07:53:06;101257.31;;;34.36;40.59
11395;BME280;5753;54.402;10.220;2023-09-12T07:55:37;101255.63;;;34.47;40.81
11395;BME280;5753;54.402;10.220;2023-09-12T07:58:17;101258.25;;;34.00;41.21
11395;BME280;5753;54.402;10.220;2023-09-12T08:00:44;101265.91;;;33.94;41.76
11395;BME280;5753;54.402;10.220;2023-09-12T08:03:10;101260.28;;;34.78;40.50
11395;BME280;5753;54.402;10.220;2023-09-12T08:05:36;101262.44;;;35.40;39.24
11395;BME280;5753;54.402;10.220;2023-09-12T08:08:03;101258.03;;;35.61;38.76
11395;BME280;5753;54.402;10.220;2023-09-12T08:10:30;101255.88;;;36.08;37.83
11395;BME280;5753;54.402;10.220;2023-09-12T08:12:56;101251.25;;;35.24;37.98
11395;BME280;5753;54.402;10.220;2023-09-12T08:15:22;101256.41;;;34.93;38.79
11395;BME280;5753;54.402;10.220;2023-09-12T08:17:48;101255.88;;;35.33;38.62
11395;BME280;5753;54.402;10.220;2023-09-12T08:20:18;101252.09;;;35.79;37.83
11395;BME280;5753;54.402;10.220;2023-09-12T08:22:44;101252.44;;;35.31;38.20
11395;BME280;5753;54.402;10.220;2023-09-12T08:25:10;101251.22;;;35.78;37.36
11395;BME280;5753;54.402;10.220;2023-09-12T08:27:38;101251.34;;;35.56;37.57
11395;BME280;5753;54.402;10.220;2023-09-12T08:30:04;101259.88;;;36.14;37.47
11395;BME280;5753;54.402;10.220;2023-09-12T08:32:31;101261.31;;;35.97;37.35
11395;BME280;5753;54.402;10.220;2023-09-12T08:34:57;101258.06;;;35.50;38.11
11395;BME280;5753;54.402;10.220;2023-09-12T08:37:23;101255.09;;;35.64;37.89
11395;BME280;5753;54.402;10.220;2023-09-12T08:39:49;101256.94;;;35.53;37.65
11395;BME280;5753;54.402;10.220;2023-09-12T08:42:16;101259.78;;;34.73;38.95
11395;BME280;5753;54.402;10.220;2023-09-12T08:44:42;101260.75;;;35.28;38.22
11395;BME280;5753;54.402;10.220;2023-09-12T08:47:09;101268.25;;;36.20;36.76
11395;BME280;5753;54.402;10.220;2023-09-12T08:49:37;101277.13;;;35.68;37.40
11395;BME280;5753;54.402;10.220;2023-09-12T08:52:05;101276.09;;;35.37;38.06
11395;BME280;5753;54.402;10.220;2023-09-12T08:54:32;101276.84;;;35.17;38.49
11395;BME280;5753;54.402;10.220;2023-09-12T08:57:02;101280.25;;;34.96;39.26
11395;BME280;5753;54.402;10.220;2023-09-12T08:59:31;101282.41;;;35.58;38.16
11395;BME280;5753;54.402;10.220;2023-09-12T09:01:58;101289.88;;;35.87;37.51
11395;BME280;5753;54.402;10.220;2023-09-12T09:04:24;101282.38;;;36.34;37.03
11395;BME280;5753;54.402;10.220;2023-09-12T09:06:54;101282.06;;;36.16;36.63
11395;BME280;5753;54.402;10.220;2023-09-12T09:09:22;101283.91;;;35.18;37.62
11395;BME280;5753;54.402;10.220;2023-09-12T09:11:50;101295.00;;;35.79;36.95
11395;BME280;5753;54.402;10.220;2023-09-12T09:14:16;101299.03;;;35.08;38.23
11395;BME280;5753;54.402;10.220;2023-09-12T09:16:42;101291.34;;;34.92;38.53
11395;BME280;5753;54.402;10.220;2023-09-12T09:19:08;101296.09;;;34.99;38.51
11395;BME280;5753;54.402;10.220;2023-09-12T09:21:38;101293.06;;;35.04;38.33
11395;BME280;5753;54.402;10.220;2023-09-12T09:24:11;101291.22;;;35.38;37.62
11395;BME280;5753;54.402;10.220;2023-09-12T09:26:42;101293.38;;;34.66;38.22
11395;BME280;5753;54.402;10.220;2023-09-12T09:29:10;101295.09;;;34.67;38.71
11395;BME280;5753;54.402;10.220;2023-09-12T09:31:41;101299.75;;;35.43;37.21
11395;BME280;5753;54.402;10.220;2023-09-12T09:34:12;101293.09;;;35.70;36.78
11395;BME280;5753;54.402;10.220;2023-09-12T09:36:42;101297.44;;;35.50;36.24
11395;BME280;5753;54.402;10.220;2023-09-12T09:39:09;101299.13;;;35.28;36.35
11395;BME280;5753;54.402;10.220;2023-09-12T09:41:36;101299.69;;;36.71;34.64
11395;BME280;5753;54.402;10.220;2023-09-12T09:44:04;101306.44;;;37.17;33.61
11395;BME280;5753;54.402;10.220;2023-09-12T09:46:31;101308.13;;;37.18;34.27
11395;BME280;5753;54.402;10.220;2023-09-12T09:48:58;101302.66;;;37.29;33.37
11395;BME280;5753;54.402;10.220;2023-09-12T09:51:26;101306.41;;;36.56;34.11
11395;BME280;5753;54.402;10.220;2023-09-12T09:53:53;101298.91;;;36.80;33.97
11395;BME280;5753;54.402;10.220;2023-09-12T09:56:24;101306.53;;;36.34;34.43
11395;BME280;5753;54.402;10.220;2023-09-12T09:58:54;101305.47;;;35.93;35.15
11395;BME280;5753;54.402;10.220;2023-09-12T10:01:29;101303.78;;;35.92;35.11
11395;BME280;5753;54.402;10.220;2023-09-12T10:04:01;101306.47;;;35.15;36.47
11395;BME280;5753;54.402;10.220;2023-09-12T10:06:28;101300.25;;;35.37;35.81
11395;BME280;5753;54.402;10.220;2023-09-12T10:08:55;101308.72;;;36.28;34.33
11395;BME280;5753;54.402;10.220;2023-09-12T10:11:25;101310.25;;;35.89;34.43
11395;BME280;5753;54.402;10.220;2023-09-12T10:13:55;101310.75;;;35.83;34.95
11395;BME280;5753;54.402;10.220;2023-09-12T10:16:30;101297.81;;;35.88;35.37
11395;BME280;5753;54.402;10.220;2023-09-12T10:19:08;101291.19;;;37.27;32.93
11395;BME280;5753;54.402;10.220;2023-09-12T10:21:37;101287.22;;;37.91;32.02
11395;BME280;5753;54.402;10.220;2023-09-12T10:24:07;101299.25;;;38.06;30.94
11395;BME280;5753;54.402;10.220;2023-09-12T10:26:35;101305.19;;;38.48;30.67
11395;BME280;5753;54.402;10.220;2023-09-12T10:29:03;101304.94;;;38.32;31.30
11395;BME280;5753;54.402;10.220;2023-09-12T10:31:30;101312.22;;;37.43;31.33
11395;BME280;5753;54.402;10.220;2023-09-12T10:33:58;101308.38;;;37.45;31.48
11395;BME280;5753;54.402;10.220;2023-09-12T10:36:26;101314.84;;;37.93;31.08
11395;BME280;5753;54.402;10.220;2023-09-12T10:38:53;101316.41;;;38.43;30.59
11395;BME280;5753;54.402;10.220;2023-09-12T10:41:20;101319.53;;;38.39;30.45
11395;BME280;5753;54.402;10.220;2023-09-12T10:43:48;101314.81;;;37.83;31.24
11395;BME280;5753;54.402;10.220;2023-09-12T10:46:18;101312.59;;;36.98;32.24
11395;BME280;5753;54.402;10.220;2023-09-12T10:48:44;101322.34;;;36.48;32.41
11395;BME280;5753;54.402;10.220;2023-09-12T10:51:11;101317.00;;;36.78;32.33
11395;BME280;5753;54.402;10.220;2023-09-12T10:53:45;101316.75;;;37.52;31.85
11395;BME280;5753;54.402;10.220;2023-09-12T10:56:17;101323.38;;;37.08;32.41
11395;BME280;5753;54.402;10.220;2023-09-12T11:01:33;101318.88;;;37.48;31.73
11395;BME280;5753;54.402;10.220;2023-09-12T11:06:47;101314.28;;;38.28;30.67
11395;BME280;5753;54.402;10.220;2023-09-12T11:09:25;101312.34;;;38.77;30.11
11395;BME280;5753;54.402;10.220;2023-09-12T11:12:04;101306.34;;;38.92;30.02
11395;BME280;5753;54.402;10.220;2023-09-12T11:14:32;101310.03;;;38.25;30.92
11395;BME280;5753;54.402;10.220;2023-09-12T11:19:44;101302.91;;;37.76;30.50
11395;BME280;5753;54.402;10.220;2023-09-12T11:22:30;101292.72;;;38.47;29.82
11395;BME280;5753;54.402;10.220;2023-09-12T11:25:01;101299.38;;;37.75;30.63
11395;BME280;5753;54.402;10.220;2023-09-12T11:27:46;101305.19;;;38.29;29.88
11395;BME280;5753;54.402;10.220;2023-09-12T11:30:27;101305.06;;;38.40;29.66
11395;BME280;5753;54.402;10.220;2023-09-12T11:33:03;101303.41;;;38.76;28.96
11395;BME280;5753;54.402;10.220;2023-09-12T11:35:29;101303.00;;;38.81;29.42
11395;BME280;5753;54.402;10.220;2023-09-12T11:38:01;101299.25;;;38.35;28.74
11395;BME280;5753;54.402;10.220;2023-09-12T11:43:01;101285.94;;;38.04;29.37
11395;BME280;5753;54.402;10.220;2023-09-12T11:45:28;101285.06;;;38.42;28.74
11395;BME280;5753;54.402;10.220;2023-09-12T11:47:54;101287.75;;;38.42;28.92
11395;BME280;5753;54.402;10.220;2023-09-12T11:50:36;101285.34;;;38.10;29.47
11395;BME280;5753;54.402;10.220;2023-09-12T11:53:05;101279.66;;;37.65;29.90
11395;BME280;5753;54.402;10.220;2023-09-12T11:58:08;101290.19;;;38.36;29.31
11395;BME280;5753;54.402;10.220;2023-09-12T12:00:34;101278.94;;;37.54;30.03
11395;BME280;5753;54.402;10.220;2023-09-12T12:03:00;101289.88;;;37.71;30.12
11395;BME280;5753;54.402;10.220;2023-09-12T12:05:26;101288.53;;;36.97;31.26
11395;BME280;5753;54.402;10.220;2023-09-12T12:07:52;101283.84;;;36.68;31.90
11395;BME280;5753;54.402;10.220;2023-09-12T12:10:20;101291.97;;;36.15;32.24
11395;BME280;5753;54.402;10.220;2023-09-12T12:12:46;101283.84;;;36.68;32.23
11395;BME280;5753;54.402;10.220;2023-09-12T12:15:13;101293.41;;;35.87;33.05
11395;BME280;5753;54.402;10.220;2023-09-12T12:17:43;101284.25;;;35.90;33.15
11395;BME280;5753;54.402;10.220;2023-09-12T12:20:10;101274.66;;;35.22;34.28
11395;BME280;5753;54.402;10.220;2023-09-12T12:22:38;101277.91;;;35.59;34.00
11395;BME280;5753;54.402;10.220;2023-09-12T12:25:08;101278.13;;;36.52;33.02
11395;BME280;5753;54.402;10.220;2023-09-12T12:27:39;101274.91;;;35.73;33.72
11395;BME280;5753;54.402;10.220;2023-09-12T12:30:10;101277.88;;;36.02;32.84
11395;BME280;5753;54.402;10.220;2023-09-12T12:32:43;101272.81;;;35.88;33.76
11395;BME280;5753;54.402;10.220;2023-09-12T12:35:21;101264.84;;;37.21;31.68
11395;BME280;5753;54.402;10.220;2023-09-12T12:37:53;101267.06;;;37.06;31.90
11395;BME280;5753;54.402;10.220;2023-09-12T12:40:20;101269.09;;;36.83;31.83
11395;BME280;5753;54.402;10.220;2023-09-12T12:42:47;101268.34;;;37.62;31.22
11395;BME280;5753;54.402;10.220;2023-09-12T12:45:21;101269.81;;;37.85;31.11
11395;BME280;5753;54.402;10.220;2023-09-12T12:47:58;101272.31;;;37.77;31.24
11395;BME280;5753;54.402;10.220;2023-09-12T12:50:25;101269.75;;;37.66;31.57
11395;BME280;5753;54.402;10.220;2023-09-12T12:52:51;101270.75;;;37.65;31.69
11395;BME280;5753;54.402;10.220;2023-09-12T12:55:17;101267.44;;;36.92;32.63
11395;BME280;5753;54.402;10.220;2023-09-12T12:57:47;101275.66;;;38.56;31.08
11395;BME280;5753;54.402;10.220;2023-09-12T13:00:15;101269.03;;;38.31;30.62
11395;BME280;5753;54.402;10.220;2023-09-12T13:02:42;101263.91;;;38.48;30.63
11395;BME280;5753;54.402;10.220;2023-09-12T13:05:27;101250.78;;;37.58;31.59
11395;BME280;5753;54.402;10.220;2023-09-12T13:07:54;101248.13;;;36.77;31.98